Time;durP1;ratioP1;P1;durP2;ratioP2;P2;SDS_P1;SDS_P2;PMS_P1;PMS_P2;Temp;Humidity;BMP_temperature;BMP_pressure;BME280_temperature;BME280_humidity;BME280_pressure;Samples;Min_cycle;Max_cycle;Signal;HPM_P1;HPM_P2
2022/06/09 00:04:36;;;;;;;;;;;;;;;-145.66;100.00;59599.19;10461096;28;19927;-68
2022/06/09 00:09:43;;;;;;;;;;;;;;;-145.66;100.00;59599.19;10458785;28;20322;-68
2022/06/09 00:14:45;;;;;;;;;;;;;;;-145.66;100.00;59599.19;10460279;28;19921;-67
2022/06/09 00:19:47;;;;;;;;;;;;;;;-145.66;100.00;59599.19;10474814;28;19924;-67
2022/06/09 00:24:49;;;;;;;;;;;;;;;-145.66;100.00;59599.19;10459279;28;19921;-67
2022/06/09 00:29:52;;;;;;;;;;;;;;;-145.66;100.00;59599.19;10486007;28;20394;-67
2022/06/09 00:34:54;;;;;;;;;;;;;;;-145.66;100.00;59599.19;10474051;28;20384;-67
2022/06/09 00:39:57;;;;;;;;;;;;;;;-145.66;100.00;59599.19;10459242;28;19936;-67
2022/06/09 00:45:18;;;;;;;;;;;;;;;-145.66;100.00;59599.19;10458522;28;19921;-68
2022/06/09 00:50:21;;;;;;;;;;;;;;;-145.66;100.00;59599.19;10458298;28;19927;-67
2022/06/09 00:55:24;;;;;;;;;;;;;;;-145.66;100.00;59599.19;10496867;28;19920;-67
2022/06/09 01:00:29;;;;;;;;;;;;;;;-145.66;100.00;59599.19;10497950;28;19932;-68
2022/06/09 01:05:31;;;;;;;;;;;;;;;-145.66;100.00;59599.19;10498444;28;19994;-67
2022/06/09 01:10:33;;;;;;;;;;;;;;;-145.66;100.00;59599.19;10470228;28;19921;-67
2022/06/09 01:15:53;;;;;;;;;;;;;;;-145.66;100.00;59599.19;10474065;28;19921;-67
2022/06/09 01:20:58;;;;;;;;;;;;;;;-145.66;100.00;59599.19;10477685;28;19920;-67
2022/06/09 01:26:06;;;;;;;;;;;;;;;-145.66;100.00;59599.19;10493283;28;20475;-67
2022/06/09 01:31:11;;;;;;;;;;;;;;;-145.66;100.00;59599.19;10477221;28;20318;-67
2022/06/09 01:36:23;;;;;;;;;;;;;;;-145.66;100.00;59599.19;10495913;28;19920;-67
2022/06/09 01:41:25;;;;;;;;;;;;;;;-145.66;100.00;59599.19;10497647;28;19920;-68
2022/06/09 01:46:32;;;;;;;;;;;;;;;-145.66;100.00;59599.19;10498680;28;19925;-67
2022/06/09 01:51:35;;;;;;;;;;;;;;;-145.66;100.00;59599.19;10456087;28;20038;-68
2022/06/09 01:56:43;;;;;;;;;;;;;;;-145.66;100.00;59599.19;10458183;28;20299;-68
2022/06/09 02:01:49;;;;;;;;;;;;;;;-145.66;100.00;59599.19;10498244;28;19920;-68
2022/06/09 02:06:51;;;;;;;;;;;;;;;-145.66;100.00;59599.19;10496922;28;19920;-67
2022/06/09 02:11:54;;;;;;;;;;;;;;;-145.66;100.00;59599.19;10496088;28;19920;-68
2022/06/09 02:16:57;;;;;;;;;;;;;;;-145.66;100.00;59599.19;10475001;28;19927;-67
2022/06/09 02:21:59;;;;;;;;;;;;;;;-145.66;100.00;59599.19;10504618;28;20007;-67
2022/06/09 02:27:01;;;;;;;;;;;;;;;-145.66;100.00;59599.19;10505631;28;19920;-67
2022/06/09 02:32:04;;;;;;;;;;;;;;;-145.66;100.00;59599.19;10486938;28;20382;-67
2022/06/09 02:37:06;;;;;;;;;;;;;;;-145.66;100.00;59599.19;10504254;28;19927;-68
2022/06/09 02:42:08;;;;;;;;;;;;;;;-145.66;100.00;59599.19;10504507;28;19924;-68
2022/06/09 02:47:11;;;;;;;;;;;;;;;-145.66;100.00;59599.19;10504824;28;19920;-68
2022/06/09 02:52:13;;;;;;;;;;;;;;;-145.66;100.00;59599.19;10503214;28;19927;-68
2022/06/09 02:57:15;;;;;;;;;;;;;;;-145.66;100.00;59599.19;10504409;28;19920;-68
2022/06/09 03:02:18;;;;;;;;;;;;;;;-145.66;100.00;59599.19;10502577;28;19932;-68
2022/06/09 03:07:20;;;;;;;;;;;;;;;-145.66;100.00;59599.19;10503530;28;19920;-68
2022/06/09 03:12:22;;;;;;;;;;;;;;;-145.66;100.00;59599.19;10503672;28;19935;-68
2022/06/09 03:17:25;;;;;;;;;;;;;;;-145.66;100.00;59599.19;10503365;28;19943;-67
2022/06/09 03:22:27;;;;;;;;;;;;;;;-145.66;100.00;59599.19;10503875;28;19931;-68
2022/06/09 03:27:29;;;;;;;;;;;;;;;-145.66;100.00;59599.19;10503447;28;19920;-67
2022/06/09 03:32:32;;;;;;;;;;;;;;;-145.66;100.00;59599.19;10501284;28;19927;-67
2022/06/09 03:37:34;;;;;;;;;;;;;;;-145.66;100.00;59599.19;10502514;28;20313;-67
2022/06/09 03:42:36;;;;;;;;;;;;;;;-145.66;100.00;59599.19;10501652;28;19927;-68
2022/06/09 03:47:38;;;;;;;;;;;;;;;-145.66;100.00;59599.19;10484931;28;19928;-68
2022/06/09 03:52:41;;;;;;;;;;;;;;;-145.66;100.00;59599.19;10501153;28;19928;-68
2022/06/09 03:57:43;;;;;;;;;;;;;;;-145.66;100.00;59599.19;10502011;28;19921;-68
2022/06/09 04:02:45;;;;;;;;;;;;;;;-145.66;100.00;59599.19;10501875;28;19920;-68
2022/06/09 04:07:48;;;;;;;;;;;;;;;-145.66;100.00;59599.19;10483992;28;19924;-68
2022/06/09 04:12:50;;;;;;;;;;;;;;;-145.66;100.00;59599.19;10501319;28;19920;-67
2022/06/09 04:17:52;;;;;;;;;;;;;;;-145.66;100.00;59599.19;10500269;28;19927;-68
2022/06/09 04:22:54;;;;;;;;;;;;;;;-145.66;100.00;59599.19;10501401;28;19920;-68
2022/06/09 04:27:56;;;;;;;;;;;;;;;-145.66;100.00;59599.19;10476912;28;19920;-68
2022/06/09 04:32:59;;;;;;;;;;;;;;;-145.66;100.00;59599.19;10500094;28;20393;-67
2022/06/09 04:38:01;;;;;;;;;;;;;;;-145.66;100.00;59599.19;10500711;28;19927;-67
2022/06/09 04:43:04;;;;;;;;;;;;;;;-145.66;100.00;59599.19;10457863;28;19920;-67
2022/06/09 04:48:08;;;;;;;;;;;;;;;-145.66;100.00;59599.19;10497627;28;19958;-68
2022/06/09 04:53:10;;;;;;;;;;;;;;;-145.66;100.00;59599.19;10497997;28;19924;-68
2022/06/09 04:58:12;;;;;;;;;;;;;;;-145.66;100.00;59599.19;10481539;28;20348;-69
2022/06/09 05:03:15;;;;;;;;;;;;;;;-145.66;100.00;59599.19;10497878;28;20360;-68
2022/06/09 05:08:17;;;;;;;;;;;;;;;-145.66;100.00;59599.19;10499489;28;19928;-69
2022/06/09 05:13:19;;;;;;;;;;;;;;;-145.66;100.00;59599.19;10498684;28;20379;-68
2022/06/09 05:18:23;;;;;;;;;;;;;;;-145.66;100.00;59599.19;10498736;28;19928;-68
2022/06/09 05:23:26;;;;;;;;;;;;;;;-145.66;100.00;59599.19;10497241;28;19920;-67
2022/06/09 05:28:28;;;;;;;;;;;;;;;-145.66;100.00;59599.19;10498013;28;19930;-68
2022/06/09 05:33:30;;;;;;;;;;;;;;;-145.66;100.00;59599.19;10497581;28;19920;-68
2022/06/09 05:49:17;;;;;;;;;;;;;;;-145.66;100.00;59599.19;10498343;28;19921;-68
2022/06/09 05:54:19;;;;;;;;;;;;;;;-145.66;100.00;59599.19;10500176;28;19927;-69
2022/06/09 05:59:22;;;;;;;;;;;;;;;-145.66;100.00;59599.19;10504105;28;19928;-68
2022/06/09 06:04:24;;;;;;;;;;;;;;;-145.66;100.00;59599.19;10505029;28;20378;-69
2022/06/09 06:09:26;;;;;;;;;;;;;;;-145.66;100.00;59599.19;10504836;28;20360;-69
2022/06/09 06:14:29;;;;;;;;;;;;;;;-145.66;100.00;59599.19;10515272;22;19935;-67
2022/06/09 06:19:31;;;;;;;;;;;;;;;-145.66;100.00;59599.19;10488432;28;19921;-67
2022/06/09 06:24:33;;;;;;;;;;;;;;;-145.66;100.00;59599.19;10504673;28;19920;-68
2022/06/09 06:29:35;;;;;;;;;;;;;;;-145.66;100.00;59599.19;10505255;28;19927;-68
2022/06/09 06:34:38;;;;;;;;;;;;;;;-145.66;100.00;59599.19;10507193;28;19921;-68
2022/06/09 06:39:40;;;;;;;;;;;;;;;-145.66;100.00;59599.19;10505475;28;19927;-68
2022/06/09 06:44:42;;;;;;;;;;;;;;;-145.66;100.00;59599.19;10504568;28;19927;-68
2022/06/09 06:49:44;;;;;;;;;;;;;;;-145.66;100.00;59599.19;10504501;28;20367;-68
2022/06/09 06:54:47;;;;;;;;;;;;;;;-145.66;100.00;59599.19;10504311;28;20389;-68
2022/06/09 06:59:49;;;;;;;;;;;;;;;-145.66;100.00;59599.19;10504656;28;19931;-68
2022/06/09 07:04:51;;;;;;;;;;;;;;;-145.66;100.00;59599.19;10502844;28;20355;-68
2022/06/09 07:09:53;;;;;;;;;;;;;;;-145.66;100.00;59599.19;10504444;28;19920;-68
2022/06/09 07:14:56;;;;;;;;;;;;;;;-145.66;100.00;59599.19;10485848;28;19927;-68
2022/06/09 07:19:58;;;;;;;;;;;;;;;-145.66;100.00;59599.19;10502838;28;19921;-68
2022/06/09 07:25:00;;;;;;;;;;;;;;;-145.66;100.00;59599.19;10501986;28;19943;-68
2022/06/09 07:30:03;;;;;;;;;;;;;;;-145.66;100.00;59599.19;10502998;28;20291;-68
2022/06/09 07:35:05;;;;;;;;;;;;;;;-145.66;100.00;59599.19;10502334;28;19920;-67
2022/06/09 07:40:07;;;;;;;;;;;;;;;-145.66;100.00;59599.19;10502562;28;19979;-68
2022/06/09 07:45:10;;;;;;;;;;;;;;;-145.66;100.00;59599.19;10485287;28;19920;-67
2022/06/09 07:50:13;;;;;;;;;;;;;;;-145.66;100.00;59599.19;10501708;28;19921;-67
2022/06/09 07:55:22;;;;;;;;;;;;;;;-145.66;100.00;59599.19;10501579;28;19924;-68
2022/06/09 08:00:24;;;;;;;;;;;;;;;-145.66;100.00;59599.19;10501721;28;20398;-68
2022/06/09 08:05:27;;;;;;;;;;;;;;;-145.66;100.00;59599.19;10502329;28;19920;-68
2022/06/09 08:10:29;;;;;;;;;;;;;;;-145.66;100.00;59599.19;10484040;28;19924;-68
2022/06/09 08:15:32;;;;;;;;;;;;;;;-145.66;100.00;59599.19;10499733;28;19920;-69
2022/06/09 08:20:35;;;;;;;;;;;;;;;-145.66;100.00;59599.19;10499811;28;19920;-68
2022/06/09 08:25:55;;;;;;;;;;;;;;;-145.66;100.00;59599.19;10499907;28;19912;-69
2022/06/09 08:30:58;;;;;;;;;;;;;;;-145.66;100.00;59599.19;10500051;28;19921;-68
2022/06/09 08:36:00;;;;;;;;;;;;;;;-145.66;100.00;59599.19;10499822;28;19927;-68
2022/06/09 08:41:13;;;;;;;;;;;;;;;-145.66;100.00;59599.19;10500678;28;19928;-68
2022/06/09 08:46:18;;;;;;;;;;;;;;;-145.66;100.00;59599.19;10491176;28;19927;-68
2022/06/09 08:51:30;;;;;;;;;;;;;;;-145.66;100.00;59599.19;10510526;28;20428;-68
2022/06/09 08:56:32;;;;;;;;;;;;;;;-145.66;100.00;59599.19;10541027;28;19927;-68
2022/06/09 09:01:47;;;;;;;;;;;;;;;-145.66;100.00;59599.19;10540102;28;20351;-68
2022/06/09 09:07:09;;;;;;;;;;;;;;;-145.66;100.00;59599.19;10540052;28;19927;-66
2022/06/09 09:12:30;;;;;;;;;;;;;;;-145.66;100.00;59599.19;10541263;28;19920;-69
2022/06/09 09:17:34;;;;;;;;;;;;;;;-145.66;100.00;59599.19;10523472;28;19928;-69
2022/06/09 09:22:39;;;;;;;;;;;;;;;-145.66;100.00;59599.19;10541220;28;19920;-65
2022/06/09 09:27:41;;;;;;;;;;;;;;;-145.66;100.00;59599.19;10539818;28;20281;-67
2022/06/09 09:32:48;;;;;;;;;;;;;;;-145.66;100.00;59599.19;10540945;28;19926;-67
2022/06/09 09:37:53;;;;;;;;;;;;;;;-145.66;100.00;59599.19;10539742;28;19920;-69
2022/06/09 09:42:57;;;;;;;;;;;;;;;-145.66;100.00;59599.19;10540621;28;19920;-69
2022/06/09 09:48:00;;;;;;;;;;;;;;;-145.66;100.00;59599.19;10540723;28;19924;-69
2022/06/09 09:53:08;;;;;;;;;;;;;;;-145.66;100.00;59599.19;10540462;28;19963;-69
2022/06/09 09:58:22;;;;;;;;;;;;;;;-145.66;100.00;59599.19;10540164;28;19927;-68
2022/06/09 10:09:17;;;;;;;;;;;;;;;-145.66;100.00;59599.19;10538955;28;19912;-67
2022/06/09 10:14:22;;;;;;;;;;;;;;;-145.66;100.00;59599.19;10538157;28;20378;-67
2022/06/09 10:19:43;;;;;;;;;;;;;;;-145.66;100.00;59599.19;10539447;28;19919;-67
2022/06/09 10:24:55;;;;;;;;;;;;;;;-145.66;100.00;59599.19;10538733;28;19920;-68
2022/06/09 10:30:03;;;;;;;;;;;;;;;-145.66;100.00;59599.19;10538018;28;20366;-69
2022/06/09 10:35:08;;;;;;;;;;;;;;;-145.66;100.00;59599.19;10537963;28;20291;-68
2022/06/09 10:40:15;;;;;;;;;;;;;;;-145.66;100.00;59599.19;10540535;28;20291;-69
2022/06/09 10:45:27;;;;;;;;;;;;;;;-145.66;100.00;59599.19;10546307;28;19920;-66
2022/06/09 10:56:25;;;;;;;;;;;;;;;-145.66;100.00;59599.19;10543371;28;19920;-66
2022/06/09 11:01:29;;;;;;;;;;;;;;;-145.66;100.00;59599.19;10532813;28;19920;-67
2022/06/09 11:06:38;;;;;;;;;;;;;;;-145.66;100.00;59599.19;10528603;28;19920;-67
2022/06/09 11:11:59;;;;;;;;;;;;;;;-145.66;100.00;59599.19;10517070;28;20402;-67
2022/06/09 11:17:20;;;;;;;;;;;;;;;-145.66;100.00;59599.19;10504430;28;20393;-66
2022/06/09 11:22:28;;;;;;;;;;;;;;;-145.66;100.00;59599.19;10502225;28;19920;-67
2022/06/09 11:27:51;;;;;;;;;;;;;;;-145.66;100.00;59599.19;10503783;28;19920;-67
2022/06/09 11:33:00;;;;;;;;;;;;;;;-145.66;100.00;59599.19;10503607;28;19921;-66
2022/06/09 11:38:09;;;;;;;;;;;;;;;-145.66;100.00;59599.19;10502245;28;19927;-67
2022/06/09 11:43:18;;;;;;;;;;;;;;;-145.66;100.00;59599.19;10501383;28;19920;-66
2022/06/09 11:48:24;;;;;;;;;;;;;;;-145.66;100.00;59599.19;10501190;28;20010;-67
2022/06/09 11:53:28;;;;;;;;;;;;;;;-145.66;100.00;59599.19;10500558;28;20386;-67
2022/06/09 11:58:34;;;;;;;;;;;;;;;-145.66;100.00;59599.19;10500857;28;19920;-68
2022/06/09 12:03:56;;;;;;;;;;;;;;;-145.66;100.00;59599.19;10502416;28;19921;-70
2022/06/09 12:09:02;;;;;;;;;;;;;;;-145.66;100.00;59599.19;10501492;28;19921;-69
2022/06/09 12:14:14;;;;;;;;;;;;;;;-145.66;100.00;59599.19;10500080;28;19920;-69
2022/06/09 12:19:18;;;;;;;;;;;;;;;-145.66;100.00;59599.19;10499903;28;20275;-69
2022/06/09 12:24:23;;;;;;;;;;;;;;;-145.66;100.00;59599.19;10499765;28;20400;-69
2022/06/09 12:29:34;;;;;;;;;;;;;;;-145.66;100.00;59599.19;10499456;28;19921;-69
2022/06/09 12:34:39;;;;;;;;;;;;;;;-145.66;100.00;59599.19;10500617;28;19920;-69
2022/06/09 12:39:46;;;;;;;;;;;;;;;-145.66;100.00;59599.19;10500812;28;20011;-69
2022/06/09 12:44:49;;;;;;;;;;;;;;;-145.66;100.00;59599.19;10498680;28;20380;-66
2022/06/09 12:50:04;;;;;;;;;;;;;;;-145.66;100.00;59599.19;10499279;28;19927;-75
2022/06/09 12:55:16;;;;;;;;;;;;;;;-145.66;100.00;59599.19;10499723;28;19920;-75
2022/06/09 13:00:21;;;;;;;;;;;;;;;-145.66;100.00;59599.19;10498955;28;19924;-74
2022/06/09 13:05:31;;;;;;;;;;;;;;;-145.66;100.00;59599.19;10498440;28;20378;-74
2022/06/09 13:10:34;;;;;;;;;;;;;;;-145.66;100.00;59599.19;10498573;28;19921;-74
2022/06/09 13:15:40;;;;;;;;;;;;;;;-145.66;100.00;59599.19;10497732;28;19987;-75
2022/06/09 13:20:50;;;;;;;;;;;;;;;-145.66;100.00;59599.19;10499394;28;19921;-74
2022/06/09 13:25:52;;;;;;;;;;;;;;;-145.66;100.00;59599.19;10498165;28;19920;-75
2022/06/09 13:30:54;;;;;;;;;;;;;;;-145.66;100.00;59599.19;10499209;28;19927;-74
2022/06/09 13:36:15;;;;;;;;;;;;;;;-145.66;100.00;59599.19;10497897;28;19928;-74
2022/06/09 13:41:19;;;;;;;;;;;;;;;-145.66;100.00;59599.19;10498289;28;19920;-75
2022/06/09 13:46:22;;;;;;;;;;;;;;;-145.66;100.00;59599.19;10497870;28;19930;-75
2022/06/09 13:51:25;;;;;;;;;;;;;;;-145.66;100.00;59599.19;10498742;28;19920;-74
2022/06/09 13:56:27;;;;;;;;;;;;;;;-145.66;100.00;59599.19;10498003;28;20282;-75
2022/06/09 14:01:30;;;;;;;;;;;;;;;-145.66;100.00;59599.19;10498522;28;19931;-76
2022/06/09 14:06:32;;;;;;;;;;;;;;;-145.66;100.00;59599.19;10497303;28;20007;-75
2022/06/09 14:11:35;;;;;;;;;;;;;;;-145.66;100.00;59599.19;10498445;28;19920;-74
2022/06/09 14:16:57;;;;;;;;;;;;;;;-145.66;100.00;59599.19;10503401;28;20325;-74
2022/06/09 14:21:59;;;;;;;;;;;;;;;-145.66;100.00;59599.19;10506348;28;19925;-75
2022/06/09 14:27:02;;;;;;;;;;;;;;;-145.66;100.00;59599.19;10506187;28;19927;-74
2022/06/09 14:32:06;;;;;;;;;;;;;;;-145.66;100.00;59599.19;10506002;28;19920;-73
2022/06/09 14:37:10;;;;;;;;;;;;;;;-145.66;100.00;59599.19;10503959;28;20382;-74
2022/06/09 14:42:12;;;;;;;;;;;;;;;-145.66;100.00;59599.19;10503668;28;19921;-75
2022/06/09 14:47:16;;;;;;;;;;;;;;;-145.66;100.00;59599.19;10504726;28;19928;-74
2022/06/09 14:52:18;;;;;;;;;;;;;;;-145.66;100.00;59599.19;10504541;28;19920;-74
2022/06/09 14:57:20;;;;;;;;;;;;;;;-145.66;100.00;59599.19;10505005;28;19920;-75
2022/06/09 15:02:22;;;;;;;;;;;;;;;-145.66;100.00;59599.19;10504674;28;19928;-75
2022/06/09 15:07:29;;;;;;;;;;;;;;;-145.66;100.00;59599.19;10504630;28;19921;-75
2022/06/09 15:12:31;;;;;;;;;;;;;;;-145.66;100.00;59599.19;10503600;28;20268;-75
2022/06/09 15:17:33;;;;;;;;;;;;;;;-145.66;100.00;59599.19;10504296;28;19920;-74
2022/06/09 15:22:35;;;;;;;;;;;;;;;-145.66;100.00;59599.19;10509702;28;19920;-75
2022/06/09 15:27:40;;;;;;;;;;;;;;;-145.66;100.00;59599.19;10521488;28;19920;-75
2022/06/09 15:32:42;;;;;;;;;;;;;;;-145.66;100.00;59599.19;10509476;28;19920;-74
2022/06/09 15:37:45;;;;;;;;;;;;;;;-145.66;100.00;59599.19;10503541;28;19920;-75
2022/06/09 15:42:48;;;;;;;;;;;;;;;-145.66;100.00;59599.19;10502592;28;19927;-73
2022/06/09 15:47:55;;;;;;;;;;;;;;;-145.66;100.00;59599.19;10513418;28;19920;-75
2022/06/09 15:52:57;;;;;;;;;;;;;;;-145.66;100.00;59599.19;10502320;28;19920;-75
2022/06/09 15:57:59;;;;;;;;;;;;;;;-145.66;100.00;59599.19;10501876;28;20318;-74
2022/06/09 16:03:02;;;;;;;;;;;;;;;-145.66;100.00;59599.19;10524833;28;19943;-74
2022/06/09 16:08:05;;;;;;;;;;;;;;;-145.66;100.00;59599.19;10535116;28;19924;-74
2022/06/09 16:13:08;;;;;;;;;;;;;;;-145.66;100.00;59599.19;10525678;28;19920;-75
2022/06/09 16:18:11;;;;;;;;;;;;;;;-145.66;100.00;59599.19;10517654;28;20023;-74
2022/06/09 16:23:13;;;;;;;;;;;;;;;-145.66;100.00;59599.19;10473702;28;20307;-74
2022/06/09 16:28:17;;;;;;;;;;;;;;;-145.66;100.00;59599.19;10496070;28;19943;-74
2022/06/09 16:33:19;;;;;;;;;;;;;;;-145.66;100.00;59599.19;10483410;28;19920;-75
2022/06/09 16:38:21;;;;;;;;;;;;;;;-145.66;100.00;59599.19;10538676;28;20011;-75
2022/06/09 16:43:24;;;;;;;;;;;;;;;-145.66;100.00;59599.19;10536544;28;19920;-74
2022/06/09 16:48:26;;;;;;;;;;;;;;;-145.66;100.00;59599.19;10504444;28;20322;-74
2022/06/09 16:53:28;;;;;;;;;;;;;;;-145.66;100.00;59599.19;10499735;28;19920;-74
2022/06/09 16:58:31;;;;;;;;;;;;;;;-145.66;100.00;59599.19;10505943;28;19920;-74
2022/06/09 17:03:34;;;;;;;;;;;;;;;-145.66;100.00;59599.19;10538310;28;19990;-65
2022/06/09 17:08:37;;;;;;;;;;;;;;;-145.66;100.00;59599.19;10500002;28;20438;-66
2022/06/09 17:13:40;;;;;;;;;;;;;;;-145.66;100.00;59599.19;10493655;28;20438;-67
2022/06/09 17:18:42;;;;;;;;;;;;;;;-145.66;100.00;59599.19;10474296;28;19948;-66
2022/06/09 17:23:45;;;;;;;;;;;;;;;-145.66;100.00;59599.19;10491044;28;19924;-66
2022/06/09 17:28:47;;;;;;;;;;;;;;;-145.66;100.00;59599.19;10490284;28;19931;-67
2022/06/09 17:33:50;;;;;;;;;;;;;;;-145.66;100.00;59599.19;10491380;28;19928;-67
2022/06/09 17:38:52;;;;;;;;;;;;;;;-145.66;100.00;59599.19;10518031;28;19924;-75
2022/06/09 17:43:54;;;;;;;;;;;;;;;-145.66;100.00;59599.19;10490531;28;19924;-76
2022/06/09 17:48:57;;;;;;;;;;;;;;;-145.66;100.00;59599.19;10489667;28;19931;-75
2022/06/09 17:53:59;;;;;;;;;;;;;;;-145.66;100.00;59599.19;10528378;28;19931;-75
2022/06/09 17:59:02;;;;;;;;;;;;;;;-145.66;100.00;59599.19;10511504;28;20266;-76
2022/06/09 18:04:04;;;;;;;;;;;;;;;-145.66;100.00;59599.19;10484492;28;19931;-74
2022/06/09 18:09:07;;;;;;;;;;;;;;;-145.66;100.00;59599.19;10499092;28;19928;-75
2022/06/09 18:14:09;;;;;;;;;;;;;;;-145.66;100.00;59599.19;10463445;28;19925;-75
2022/06/09 18:19:12;;;;;;;;;;;;;;;-145.66;100.00;59599.19;10485984;28;19927;-75
2022/06/09 18:24:14;;;;;;;;;;;;;;;-145.66;100.00;59599.19;10480900;28;19925;-75
2022/06/09 18:29:16;;;;;;;;;;;;;;;-145.66;100.00;59599.19;10460723;23;19928;-73
2022/06/09 18:34:19;;;;;;;;;;;;;;;-145.66;100.00;59599.19;10445040;28;19928;-73
2022/06/09 18:39:21;;;;;;;;;;;;;;;-145.66;100.00;59599.19;10432201;28;19952;-73
2022/06/09 18:44:23;;;;;;;;;;;;;;;-145.66;100.00;59599.19;10396805;28;19929;-73
2022/06/09 18:49:26;;;;;;;;;;;;;;;-145.66;100.00;59599.19;10435372;28;19925;-70
2022/06/09 18:54:28;;;;;;;;;;;;;;;-145.66;100.00;59599.19;10392279;28;19929;-72
2022/06/09 18:59:33;;;;;;;;;;;;;;;-145.66;100.00;59599.19;10407107;28;19925;-73
2022/06/09 19:04:39;;;;;;;;;;;;;;;-145.66;100.00;59599.19;10399574;28;20300;-71
2022/06/09 19:09:41;;;;;;;;;;;;;;;-145.66;100.00;59599.19;10451544;28;19925;-72
2022/06/09 19:14:44;;;;;;;;;;;;;;;-145.66;100.00;59599.19;10430630;28;19925;-72
2022/06/09 19:19:47;;;;;;;;;;;;;;;-145.66;100.00;59599.19;10414417;28;20368;-72
2022/06/09 19:24:49;;;;;;;;;;;;;;;-145.66;100.00;59599.19;10386107;28;19931;-72
2022/06/09 19:29:51;;;;;;;;;;;;;;;-145.66;100.00;59599.19;10418668;28;19952;-72
2022/06/09 19:34:53;;;;;;;;;;;;;;;-145.66;100.00;59599.19;10424784;28;19925;-69
2022/06/09 19:39:56;;;;;;;;;;;;;;;-145.66;100.00;59599.19;10447629;28;19955;-69
2022/06/09 19:45:00;;;;;;;;;;;;;;;-145.66;100.00;59599.19;10395544;28;19931;-69
2022/06/09 19:50:04;;;;;;;;;;;;;;;-145.66;100.00;59599.19;10438044;28;19952;-69
2022/06/09 19:55:06;;;;;;;;;;;;;;;-145.66;100.00;59599.19;10414131;28;19925;-69
2022/06/09 20:00:12;;;;;;;;;;;;;;;-145.66;100.00;59599.19;10418170;28;20287;-69
2022/06/09 20:05:14;;;;;;;;;;;;;;;-145.66;100.00;59599.19;10453590;28;19928;-69
2022/06/09 20:10:23;;;;;;;;;;;;;;;-145.66;100.00;59599.19;10434868;28;19924;-69
2022/06/09 20:15:25;;;;;;;;;;;;;;;-145.66;100.00;59599.19;10438845;28;19931;-69
2022/06/09 20:20:30;;;;;;;;;;;;;;;-145.66;100.00;59599.19;10422882;28;19961;-69
2022/06/09 20:25:33;;;;;;;;;;;;;;;-145.66;100.00;59599.19;10427475;28;19999;-69
2022/06/09 20:30:36;;;;;;;;;;;;;;;-145.66;100.00;59599.19;10417941;28;20270;-69
2022/06/09 20:35:38;;;;;;;;;;;;;;;-145.66;100.00;59599.19;10413822;28;19979;-69
2022/06/09 20:40:41;;;;;;;;;;;;;;;-145.66;100.00;59599.19;10413218;28;19947;-69
2022/06/09 20:45:45;;;;;;;;;;;;;;;-145.66;100.00;59599.19;10406861;28;20266;-69
2022/06/09 20:50:47;;;;;;;;;;;;;;;-145.66;100.00;59599.19;10392056;28;19932;-69
2022/06/09 20:55:52;;;;;;;;;;;;;;;-145.66;100.00;59599.19;10393670;28;20292;-69
2022/06/09 21:00:57;;;;;;;;;;;;;;;-145.66;100.00;59599.19;10414059;28;19921;-69
2022/06/09 21:06:00;;;;;;;;;;;;;;;-145.66;100.00;59599.19;10417333;28;19921;-69
2022/06/09 21:21:45;;;;;;;;;;;;;;;-145.66;100.00;59599.19;10417894;28;19976;-69
2022/06/09 21:26:47;;;;;;;;;;;;;;;-145.66;100.00;59599.19;10415839;28;19921;-69
2022/06/09 21:31:50;;;;;;;;;;;;;;;-145.66;100.00;59599.19;10438482;28;20386;-69
2022/06/09 21:36:52;;;;;;;;;;;;;;;-145.66;100.00;59599.19;10456665;28;19925;-69
2022/06/09 21:41:54;;;;;;;;;;;;;;;-145.66;100.00;59599.19;10450795;28;19921;-69
2022/06/09 21:46:56;;;;;;;;;;;;;;;-145.66;100.00;59599.19;10440288;28;19921;-69
2022/06/09 21:51:58;;;;;;;;;;;;;;;-145.66;100.00;59599.19;10439697;28;19921;-69
2022/06/09 21:57:01;;;;;;;;;;;;;;;-145.66;100.00;59599.19;10420661;28;19921;-69
2022/06/09 22:02:03;;;;;;;;;;;;;;;-145.66;100.00;59599.19;10435720;28;19927;-69
2022/06/09 22:07:06;;;;;;;;;;;;;;;-145.66;100.00;59599.19;10439359;28;19921;-69
2022/06/09 22:12:09;;;;;;;;;;;;;;;-145.66;100.00;59599.19;10439223;28;19927;-69
2022/06/09 22:17:12;;;;;;;;;;;;;;;-145.66;100.00;59599.19;10416863;28;19921;-69
2022/06/09 22:22:15;;;;;;;;;;;;;;;-145.66;100.00;59599.19;10416506;28;19979;-69
2022/06/09 22:27:17;;;;;;;;;;;;;;;-145.66;100.00;59599.19;10415080;28;19921;-69
2022/06/09 22:32:20;;;;;;;;;;;;;;;-145.66;100.00;59599.19;10415301;28;19928;-69
2022/06/09 22:37:22;;;;;;;;;;;;;;;-145.66;100.00;59599.19;10419860;28;19924;-69
2022/06/09 22:42:25;;;;;;;;;;;;;;;-145.66;100.00;59599.19;10423925;28;19921;-69
2022/06/09 22:47:27;;;;;;;;;;;;;;;-145.66;100.00;59599.19;10423560;28;19921;-69
2022/06/09 22:52:29;;;;;;;;;;;;;;;-145.66;100.00;59599.19;10461745;28;20413;-69
2022/06/09 22:57:31;;;;;;;;;;;;;;;-145.66;100.00;59599.19;10463721;28;19939;-69
2022/06/09 23:02:33;;;;;;;;;;;;;;;-145.66;100.00;59599.19;10461124;28;19921;-69
2022/06/09 23:07:36;;;;;;;;;;;;;;;-145.66;100.00;59599.19;10462734;28;19920;-69
2022/06/09 23:12:38;;;;;;;;;;;;;;;-145.66;100.00;59599.19;10462191;28;20399;-69
2022/06/09 23:17:40;;;;;;;;;;;;;;;-145.66;100.00;59599.19;10427723;28;20269;-69
2022/06/09 23:22:43;;;;;;;;;;;;;;;-145.66;100.00;59599.19;10446290;28;19921;-69
2022/06/09 23:27:48;;;;;;;;;;;;;;;-145.66;100.00;59599.19;10426121;28;19925;-69
2022/06/09 23:32:50;;;;;;;;;;;;;;;-145.66;100.00;59599.19;10420417;28;19971;-69
2022/06/09 23:37:54;;;;;;;;;;;;;;;-145.66;100.00;59599.19;10420223;28;19925;-69
2022/06/09 23:42:56;;;;;;;;;;;;;;;-145.66;100.00;59599.19;10420186;28;20365;-69
2022/06/09 23:48:12;;;;;;;;;;;;;;;-145.66;100.00;59599.19;10416918;28;19921;-69
2022/06/09 23:53:14;;;;;;;;;;;;;;;-145.66;100.00;59599.19;10386569;28;19921;-69
2022/06/09 23:58:17;;;;;;;;;;;;;;;-145.66;100.00;59599.19;10402523;28;19937;-69
